Kaprifol — 5BXX2 — position and weather

sailwx.info

Track history (hours):
 
Tides and Currents Weather Stations Pressure Air Temp Water Temp Dewpoint Dewpoint Depression Visibility Wind Speed Wind Dir Waves Ship Positions

Kaprifol

Last reported at 2017-Feb-25 17:30 UTC. Time now 2017-Feb-26 07:49 UTC.
Position N 56°01' W 003°21'.

Length 90 m; draft 5.3 m.

Type: Tanker. MMSI: 210445000.

Date/timePositionNaut miles runAvg speedWind from/ knotsBaromVisibWave heightAir tempDewpointWater temp
2017-Feb-25 17:30N 56°01' W 003°21'9 9.2
2017-Feb-25 16:33N 56°04' W 003°06'9 9.2
2017-Feb-25 15:34N 56°05' W 002°50'9 9.2
2017-Feb-25 14:33N 56°06' W 002°33'9 9.1
2017-Feb-25 13:33N 56°05' W 002°17'9 8.6
2017-Feb-25 12:33N 56°05' W 002°01'308 9.2
2017-Feb-24 03:07N 55°31' E 007°04'5 9.2
2017-Feb-24 02:33N 55°30' E 007°12'1010.1
2017-Feb-24 01:34N 55°27' E 007°29'1010.2
2017-Feb-24 00:34N 55°25' E 007°47'1010.3
2017-Feb-23 23:34N 55°25' E 008°05'10 9.6
2017-Feb-23 22:34N 55°28' E 008°21'3 2.8
2017-Feb-23 21:31N 55°28' E 008°26'0 0.0
2017-Feb-23 20:22N 55°28' E 008°26'0 0.0
2017-Feb-23 19:22N 55°28' E 008°26'0 0.0
2017-Feb-23 18:28N 55°28' E 008°26'0 0.0
2017-Feb-23 17:25N 55°28' E 008°26'0 0.0
2017-Feb-23 16:31N 55°28' E 008°26'0 0.0
2017-Feb-23 15:25N 55°28' E 008°26'0 0.0
2017-Feb-23 14:16N 55°28' E 008°26'0 0.0
2017-Feb-23 13:31N 55°28' E 008°26'0 0.0
2017-Feb-23 12:31N 55°28' E 008°26'0 0.0
2017-Feb-23 11:31N 55°28' E 008°26'0 0.0
2017-Feb-23 10:31N 55°28' E 008°26'0 0.0
2017-Feb-23 09:28N 55°28' E 008°26'0 0.0
2017-Feb-23 08:28N 55°28' E 008°26'0 0.0
2017-Feb-23 07:31N 55°28' E 008°26'0 0.0
2017-Feb-23 06:31N 55°28' E 008°26'0 0.0
2017-Feb-23 05:31N 55°28' E 008°26'0 0.0
2017-Feb-23 04:31N 55°28' E 008°26'0 0.0
2017-Feb-23 02:33N 55°28' E 008°26'0 0.0
2017-Feb-23 01:33N 55°28' E 008°26'0 0.0
2017-Feb-23 00:33N 55°28' E 008°26'0 0.0
2017-Feb-22 23:24N 55°28' E 008°26'0 0.0
2017-Feb-22 22:24N 55°28' E 008°26'0 0.0
2017-Feb-22 21:21N 55°28' E 008°26'0 0.0
2017-Feb-22 20:27N 55°28' E 008°26'0 0.0
2017-Feb-22 19:27N 55°28' E 008°26'0 0.0
2017-Feb-22 18:27N 55°28' E 008°26'0 0.1
2017-Feb-22 17:33N 55°28' E 008°26'9 8.7
2017-Feb-22 16:34N 55°24' E 008°12'10 9.6
2017-Feb-22 15:33N 55°19' E 007°58'10 9.7
2017-Feb-22 14:33N 55°12' E 007°46'10 9.6
2017-Feb-22 13:34N 55°06' E 007°33'10 9.5
2017-Feb-22 12:33N 54°60' E 007°21'10 9.7
2017-Feb-22 11:33N 54°54' E 007°06'166 9.6
2017-Feb-21 18:18N 52°45' E 004°10'8 9.1
2017-Feb-21 17:24N 52°37' E 004°07'8 9.2
2017-Feb-21 16:33N 52°32' E 004°17'1 0.9
2017-Feb-21 15:33N 52°32' E 004°18'0 0.0
2017-Feb-21 14:30N 52°32' E 004°18'0 0.0
2017-Feb-21 13:33N 52°32' E 004°18'0 0.0
2017-Feb-21 12:33N 52°32' E 004°18'0 0.0
2017-Feb-21 11:33N 52°32' E 004°18'0 0.0
2017-Feb-21 10:33N 52°32' E 004°18'0 0.0
2017-Feb-21 09:33N 52°32' E 004°18'0 0.0
2017-Feb-21 08:33N 52°32' E 004°18'0 0.0
2017-Feb-21 07:33N 52°31' E 004°18'0 0.0
2017-Feb-21 06:33N 52°31' E 004°18'0 0.0
2017-Feb-21 05:23N 52°31' E 004°18'0 0.0
2017-Feb-21 03:32N 52°31' E 004°18'0 0.0
2017-Feb-21 02:32N 52°32' E 004°18'0 0.0
2017-Feb-21 01:32N 52°32' E 004°18'0 0.0
2017-Feb-21 00:11N 52°32' E 004°18'0 0.0
2017-Feb-20 23:32N 52°32' E 004°18'0 0.0
2017-Feb-20 22:32N 52°32' E 004°18'0 0.0
2017-Feb-20 21:26N 52°32' E 004°18'0 0.0
2017-Feb-20 20:26N 52°32' E 004°18'0 0.0
2017-Feb-20 19:32N 52°32' E 004°18'0 0.0
2017-Feb-20 18:29N 52°32' E 004°18'0 0.0
2017-Feb-20 17:32N 52°32' E 004°18'0 0.0
2017-Feb-20 16:32N 52°32' E 004°18'0 0.0
2017-Feb-20 15:32N 52°32' E 004°18'0 0.0
2017-Feb-20 14:32N 52°32' E 004°18'0 0.0
2017-Feb-20 12:32N 52°32' E 004°18'3 3.3
2017-Feb-20 11:33N 52°31' E 004°23'9 8.5
2017-Feb-20 10:33N 52°28' E 004°37'6 6.0
2017-Feb-20 09:33N 52°26' E 004°46'3 2.8
2017-Feb-20 08:32N 52°25' E 004°50'0 0.0
2017-Feb-20 07:32N 52°25' E 004°50'0 0.0
2017-Feb-20 06:32N 52°25' E 004°50'0 0.0
2017-Feb-20 05:32N 52°25' E 004°50'0 0.0
2017-Feb-20 04:32N 52°25' E 004°50'0 0.0
2017-Feb-20 03:32N 52°25' E 004°50'0 0.0
2017-Feb-20 02:32N 52°25' E 004°50'0 0.0
2017-Feb-20 01:32N 52°25' E 004°50'0 0.0
2017-Feb-20 00:32N 52°25' E 004°50'0 0.0
2017-Feb-19 23:29N 52°25' E 004°50'0 0.0
2017-Feb-19 22:32N 52°25' E 004°50'0 0.0
2017-Feb-19 21:32N 52°25' E 004°50'0 0.0
2017-Feb-19 20:29N 52°25' E 004°50'0 0.0
2017-Feb-19 18:32N 52°25' E 004°50'0 0.0
2017-Feb-19 17:32N 52°25' E 004°50'0 0.0
2017-Feb-19 16:29N 52°25' E 004°50'0 0.0
2017-Feb-19 15:32N 52°25' E 004°50'0 0.4
2017-Feb-19 14:34N 52°25' E 004°50'8 8.0
2017-Feb-19 13:33N 52°28' E 004°38'6 5.7
2017-Feb-19 12:33N 52°28' E 004°29'9 9.1
2017-Feb-19 11:33N 52°29' E 004°14'10 9.8
2017-Feb-19 10:33N 52°36' E 004°04'1010.0
2017-Feb-19 09:33N 52°46' E 003°60'81 9.9
2017-Feb-19 01:23N 53°60' E 004°56'10 9.3
2017-Feb-19 00:21N 54°09' E 005°03'8 9.3
2017-Feb-18 23:32N 54°15' E 005°09'237 9.9
2017-Feb-17 23:32N 57°36' E 008°54'1010.4
2017-Feb-17 22:33N 57°44' E 009°05'6310.5
2017-Feb-17 16:33N 58°37' E 010°12'1111.0
2017-Feb-17 15:34N 58°46' E 010°24'1010.5
2017-Feb-17 14:33N 58°55' E 010°35'10 9.9
2017-Feb-17 13:33N 59°02' E 010°48'7 7.0
2017-Feb-17 12:34N 59°06' E 010°58'9 9.0
2017-Feb-17 11:34N 59°15' E 011°01'3 2.6
2017-Feb-17 10:32N 59°16' E 011°06'0 0.0
2017-Feb-17 09:32N 59°16' E 011°06'0 0.0
2017-Feb-17 08:32N 59°16' E 011°06'0 0.0
2017-Feb-17 07:32N 59°16' E 011°06'0 0.0
2017-Feb-17 06:32N 59°16' E 011°06'0 0.0
2017-Feb-17 05:29N 59°16' E 011°06'0 0.0
2017-Feb-17 04:32N 59°16' E 011°06'0 0.0
2017-Feb-17 03:32N 59°16' E 011°06'0 0.0
2017-Feb-17 02:32N 59°16' E 011°06'0 0.0
2017-Feb-17 01:32N 59°16' E 011°06'0 0.0
2017-Feb-17 00:29N 59°16' E 011°06'0 0.0
2017-Feb-16 23:32N 59°16' E 011°06'0 0.0
2017-Feb-16 22:32N 59°16' E 011°06'0 0.0
2017-Feb-16 21:32N 59°16' E 011°06'0 0.0
2017-Feb-16 20:29N 59°16' E 011°06'0 0.0
2017-Feb-16 19:26N 59°16' E 011°06'0 0.0
2017-Feb-16 18:32N 59°16' E 011°06'0 0.0
2017-Feb-16 17:32N 59°16' E 011°06'0 0.0
2017-Feb-16 16:28N 59°16' E 011°06'0 0.0
2017-Feb-16 15:31N 59°16' E 011°06'0 0.0
2017-Feb-16 14:31N 59°16' E 011°06'0 0.0
2017-Feb-16 13:31N 59°16' E 011°06'0 0.0
2017-Feb-16 12:31N 59°16' E 011°06'0 0.0
2017-Feb-16 11:31N 59°16' E 011°06'0 0.0
2017-Feb-16 10:31N 59°16' E 011°06'0 0.0
2017-Feb-16 09:31N 59°16' E 011°06'4 4.4
2017-Feb-16 08:33N 59°14' E 010°59'2 2.5
2017-Feb-16 07:33N 59°12' E 010°57'0 0.0
2017-Feb-16 06:33N 59°12' E 010°57'0 0.0
2017-Feb-16 05:33N 59°12' E 010°57'0 0.0
2017-Feb-16 04:33N 59°12' E 010°57'0 0.0
2017-Feb-16 03:33N 59°12' E 010°57'0 0.0
2017-Feb-16 02:33N 59°12' E 010°57'0 0.0
2017-Feb-16 01:33N 59°12' E 010°57'0 0.0
2017-Feb-16 00:33N 59°12' E 010°57'0 0.0
2017-Feb-15 23:33N 59°12' E 010°57'0 0.0
2017-Feb-15 22:33N 59°12' E 010°57'0 0.0
2017-Feb-15 21:33N 59°12' E 010°57'5 5.3
2017-Feb-15 20:33N 59°06' E 010°58'7 6.6
2017-Feb-15 19:33N 59°02' E 010°48'1211.6
2017-Feb-15 18:33N 58°54' E 010°33'1211.6
2017-Feb-15 17:33N 58°45' E 010°18'  
Track history (hours):
 
Tides and Currents Weather Stations Pressure Air Temp Water Temp Dewpoint Dewpoint Depression Visibility Wind Speed Wind Dir Waves Ship Positions

Kaprifol

Last reported at 2017-Feb-25 17:30 UTC. Time now 2017-Feb-26 07:49 UTC.
Position N 56°01' W 003°21'.

Length 90 m; draft 5.3 m.

Type: Tanker. MMSI: 210445000.

Date/timePositionNaut miles runAvg speedWind from/ knotsBaromVisibWave heightAir tempDewpointWater temp
2017-Feb-25 17:30N 56°01' W 003°21'9 9.2
2017-Feb-25 16:33N 56°04' W 003°06'9 9.2
2017-Feb-25 15:34N 56°05' W 002°50'9 9.2
2017-Feb-25 14:33N 56°06' W 002°33'9 9.1
2017-Feb-25 13:33N 56°05' W 002°17'9 8.6
2017-Feb-25 12:33N 56°05' W 002°01'308 9.2
2017-Feb-24 03:07N 55°31' E 007°04'5 9.2
2017-Feb-24 02:33N 55°30' E 007°12'1010.1
2017-Feb-24 01:34N 55°27' E 007°29'1010.2
2017-Feb-24 00:34N 55°25' E 007°47'1010.3
2017-Feb-23 23:34N 55°25' E 008°05'10 9.6
2017-Feb-23 22:34N 55°28' E 008°21'3 2.8
2017-Feb-23 21:31N 55°28' E 008°26'0 0.0
2017-Feb-23 20:22N 55°28' E 008°26'0 0.0
2017-Feb-23 19:22N 55°28' E 008°26'0 0.0
2017-Feb-23 18:28N 55°28' E 008°26'0 0.0
2017-Feb-23 17:25N 55°28' E 008°26'0 0.0
2017-Feb-23 16:31N 55°28' E 008°26'0 0.0
2017-Feb-23 15:25N 55°28' E 008°26'0 0.0
2017-Feb-23 14:16N 55°28' E 008°26'0 0.0
2017-Feb-23 13:31N 55°28' E 008°26'0 0.0
2017-Feb-23 12:31N 55°28' E 008°26'0 0.0
2017-Feb-23 11:31N 55°28' E 008°26'0 0.0
2017-Feb-23 10:31N 55°28' E 008°26'0 0.0
2017-Feb-23 09:28N 55°28' E 008°26'0 0.0
2017-Feb-23 08:28N 55°28' E 008°26'0 0.0
2017-Feb-23 07:31N 55°28' E 008°26'0 0.0
2017-Feb-23 06:31N 55°28' E 008°26'0 0.0
2017-Feb-23 05:31N 55°28' E 008°26'0 0.0
2017-Feb-23 04:31N 55°28' E 008°26'0 0.0
2017-Feb-23 02:33N 55°28' E 008°26'0 0.0
2017-Feb-23 01:33N 55°28' E 008°26'0 0.0
2017-Feb-23 00:33N 55°28' E 008°26'0 0.0
2017-Feb-22 23:24N 55°28' E 008°26'0 0.0
2017-Feb-22 22:24N 55°28' E 008°26'0 0.0
2017-Feb-22 21:21N 55°28' E 008°26'0 0.0
2017-Feb-22 20:27N 55°28' E 008°26'0 0.0
2017-Feb-22 19:27N 55°28' E 008°26'0 0.0
2017-Feb-22 18:27N 55°28' E 008°26'0 0.1
2017-Feb-22 17:33N 55°28' E 008°26'9 8.7
2017-Feb-22 16:34N 55°24' E 008°12'10 9.6
2017-Feb-22 15:33N 55°19' E 007°58'10 9.7
2017-Feb-22 14:33N 55°12' E 007°46'10 9.6
2017-Feb-22 13:34N 55°06' E 007°33'10 9.5
2017-Feb-22 12:33N 54°60' E 007°21'10 9.7
2017-Feb-22 11:33N 54°54' E 007°06'166 9.6
2017-Feb-21 18:18N 52°45' E 004°10'8 9.1
2017-Feb-21 17:24N 52°37' E 004°07'8 9.2
2017-Feb-21 16:33N 52°32' E 004°17'1 0.9
2017-Feb-21 15:33N 52°32' E 004°18'0 0.0
2017-Feb-21 14:30N 52°32' E 004°18'0 0.0
2017-Feb-21 13:33N 52°32' E 004°18'0 0.0
2017-Feb-21 12:33N 52°32' E 004°18'0 0.0
2017-Feb-21 11:33N 52°32' E 004°18'0 0.0
2017-Feb-21 10:33N 52°32' E 004°18'0 0.0
2017-Feb-21 09:33N 52°32' E 004°18'0 0.0
2017-Feb-21 08:33N 52°32' E 004°18'0 0.0
2017-Feb-21 07:33N 52°31' E 004°18'0 0.0
2017-Feb-21 06:33N 52°31' E 004°18'0 0.0
2017-Feb-21 05:23N 52°31' E 004°18'0 0.0
2017-Feb-21 03:32N 52°31' E 004°18'0 0.0
2017-Feb-21 02:32N 52°32' E 004°18'0 0.0
2017-Feb-21 01:32N 52°32' E 004°18'0 0.0
2017-Feb-21 00:11N 52°32' E 004°18'0 0.0
2017-Feb-20 23:32N 52°32' E 004°18'0 0.0
2017-Feb-20 22:32N 52°32' E 004°18'0 0.0
2017-Feb-20 21:26N 52°32' E 004°18'0 0.0
2017-Feb-20 20:26N 52°32' E 004°18'0 0.0
2017-Feb-20 19:32N 52°32' E 004°18'0 0.0
2017-Feb-20 18:29N 52°32' E 004°18'0 0.0
2017-Feb-20 17:32N 52°32' E 004°18'0 0.0
2017-Feb-20 16:32N 52°32' E 004°18'0 0.0
2017-Feb-20 15:32N 52°32' E 004°18'0 0.0
2017-Feb-20 14:32N 52°32' E 004°18'0 0.0
2017-Feb-20 12:32N 52°32' E 004°18'3 3.3
2017-Feb-20 11:33N 52°31' E 004°23'9 8.5
2017-Feb-20 10:33N 52°28' E 004°37'6 6.0
2017-Feb-20 09:33N 52°26' E 004°46'3 2.8
2017-Feb-20 08:32N 52°25' E 004°50'0 0.0
2017-Feb-20 07:32N 52°25' E 004°50'0 0.0
2017-Feb-20 06:32N 52°25' E 004°50'0 0.0
2017-Feb-20 05:32N 52°25' E 004°50'0 0.0
2017-Feb-20 04:32N 52°25' E 004°50'0 0.0
2017-Feb-20 03:32N 52°25' E 004°50'0 0.0
2017-Feb-20 02:32N 52°25' E 004°50'0 0.0
2017-Feb-20 01:32N 52°25' E 004°50'0 0.0
2017-Feb-20 00:32N 52°25' E 004°50'0 0.0
2017-Feb-19 23:29N 52°25' E 004°50'0 0.0
2017-Feb-19 22:32N 52°25' E 004°50'0 0.0
2017-Feb-19 21:32N 52°25' E 004°50'0 0.0
2017-Feb-19 20:29N 52°25' E 004°50'0 0.0
2017-Feb-19 18:32N 52°25' E 004°50'0 0.0
2017-Feb-19 17:32N 52°25' E 004°50'0 0.0
2017-Feb-19 16:29N 52°25' E 004°50'0 0.0
2017-Feb-19 15:32N 52°25' E 004°50'0 0.4
2017-Feb-19 14:34N 52°25' E 004°50'8 8.0
2017-Feb-19 13:33N 52°28' E 004°38'6 5.7
2017-Feb-19 12:33N 52°28' E 004°29'9 9.1
2017-Feb-19 11:33N 52°29' E 004°14'10 9.8
2017-Feb-19 10:33N 52°36' E 004°04'1010.0
2017-Feb-19 09:33N 52°46' E 003°60'81 9.9
2017-Feb-19 01:23N 53°60' E 004°56'10 9.3
2017-Feb-19 00:21N 54°09' E 005°03'8 9.3
2017-Feb-18 23:32N 54°15' E 005°09'237 9.9
2017-Feb-17 23:32N 57°36' E 008°54'1010.4
2017-Feb-17 22:33N 57°44' E 009°05'6310.5
2017-Feb-17 16:33N 58°37' E 010°12'1111.0
2017-Feb-17 15:34N 58°46' E 010°24'1010.5
2017-Feb-17 14:33N 58°55' E 010°35'10 9.9
2017-Feb-17 13:33N 59°02' E 010°48'7 7.0
2017-Feb-17 12:34N 59°06' E 010°58'9 9.0
2017-Feb-17 11:34N 59°15' E 011°01'3 2.6
2017-Feb-17 10:32N 59°16' E 011°06'0 0.0
2017-Feb-17 09:32N 59°16' E 011°06'0 0.0
2017-Feb-17 08:32N 59°16' E 011°06'0 0.0
2017-Feb-17 07:32N 59°16' E 011°06'0 0.0
2017-Feb-17 06:32N 59°16' E 011°06'0 0.0
2017-Feb-17 05:29N 59°16' E 011°06'0 0.0
2017-Feb-17 04:32N 59°16' E 011°06'0 0.0
2017-Feb-17 03:32N 59°16' E 011°06'0 0.0
2017-Feb-17 02:32N 59°16' E 011°06'0 0.0
2017-Feb-17 01:32N 59°16' E 011°06'0 0.0
2017-Feb-17 00:29N 59°16' E 011°06'0 0.0
2017-Feb-16 23:32N 59°16' E 011°06'0 0.0
2017-Feb-16 22:32N 59°16' E 011°06'0 0.0
2017-Feb-16 21:32N 59°16' E 011°06'0 0.0
2017-Feb-16 20:29N 59°16' E 011°06'0 0.0
2017-Feb-16 19:26N 59°16' E 011°06'0 0.0
2017-Feb-16 18:32N 59°16' E 011°06'0 0.0
2017-Feb-16 17:32N 59°16' E 011°06'0 0.0
2017-Feb-16 16:28N 59°16' E 011°06'0 0.0
2017-Feb-16 15:31N 59°16' E 011°06'0 0.0
2017-Feb-16 14:31N 59°16' E 011°06'0 0.0
2017-Feb-16 13:31N 59°16' E 011°06'0 0.0
2017-Feb-16 12:31N 59°16' E 011°06'0 0.0
2017-Feb-16 11:31N 59°16' E 011°06'0 0.0
2017-Feb-16 10:31N 59°16' E 011°06'0 0.0
2017-Feb-16 09:31N 59°16' E 011°06'4 4.4
2017-Feb-16 08:33N 59°14' E 010°59'2 2.5
2017-Feb-16 07:33N 59°12' E 010°57'0 0.0
2017-Feb-16 06:33N 59°12' E 010°57'0 0.0
2017-Feb-16 05:33N 59°12' E 010°57'0 0.0
2017-Feb-16 04:33N 59°12' E 010°57'0 0.0
2017-Feb-16 03:33N 59°12' E 010°57'0 0.0
2017-Feb-16 02:33N 59°12' E 010°57'0 0.0
2017-Feb-16 01:33N 59°12' E 010°57'0 0.0
2017-Feb-16 00:33N 59°12' E 010°57'0 0.0
2017-Feb-15 23:33N 59°12' E 010°57'0 0.0
2017-Feb-15 22:33N 59°12' E 010°57'0 0.0
2017-Feb-15 21:33N 59°12' E 010°57'5 5.3
2017-Feb-15 20:33N 59°06' E 010°58'7 6.6
2017-Feb-15 19:33N 59°02' E 010°48'1211.6
2017-Feb-15 18:33N 58°54' E 010°33'1211.6
2017-Feb-15 17:33N 58°45' E 010°18'  

Dump ship's entire track history